Time;durP1;ratioP1;P1;durP2;ratioP2;P2;SDS_P1;SDS_P2;PMS_P1;PMS_P2;Temp;Humidity;BMP_temperature;BMP_pressure;BME280_temperature;BME280_humidity;BME280_pressure;Samples;Min_cycle;Max_cycle;Signal;HPM_P1;HPM_P2
2022/04/19 00:00:45;;;;;;;12.73;7.05;;;8.20;77.10;;;;;;5114989;28;20051;-45
2022/04/19 00:03:15;;;;;;;11.68;6.68;;;8.20;77.10;;;;;;5114452;28;20053;-45
2022/04/19 00:05:52;;;;;;;10.50;7.25;;;8.20;77.30;;;;;;5114135;28;20398;-45
2022/04/19 00:08:19;;;;;;;11.20;6.30;;;8.10;77.30;;;;;;5112957;28;20049;-45
2022/04/19 00:10:47;;;;;;;10.45;6.93;;;8.10;77.50;;;;;;5113751;28;20157;-45
2022/04/19 00:13:20;;;;;;;11.38;7.30;;;8.00;77.50;;;;;;5095603;28;20026;-45
2022/04/19 00:15:47;;;;;;;12.35;6.80;;;8.00;77.60;;;;;;5110404;28;20055;-45
2022/04/19 00:18:15;;;;;;;13.15;6.90;;;7.90;77.70;;;;;;5095293;28;20351;-45
2022/04/19 00:20:42;;;;;;;11.88;6.72;;;7.90;77.80;;;;;;5112389;28;20028;-46
2022/04/19 00:23:14;;;;;;;9.68;6.25;;;7.90;78.00;;;;;;5113542;28;20038;-49
2022/04/19 00:25:45;;;;;;;11.55;7.22;;;7.80;78.10;;;;;;5095858;28;20103;-45
2022/04/19 00:28:14;;;;;;;10.05;7.07;;;7.80;78.40;;;;;;5113449;28;20027;-45
2022/04/19 00:30:41;;;;;;;10.63;6.88;;;7.70;78.40;;;;;;5113485;28;20088;-47
2022/04/19 00:33:10;;;;;;;12.82;7.45;;;7.70;78.80;;;;;;5062592;28;20039;-47
2022/04/19 00:35:37;;;;;;;11.52;7.22;;;7.60;78.90;;;;;;5095359;28;20028;-45
2022/04/19 00:38:03;;;;;;;14.27;6.85;;;7.60;79.00;;;;;;5111319;28;20043;-48
2022/04/19 00:40:31;;;;;;;11.23;6.45;;;7.60;79.20;;;;;;5095368;28;20063;-46
2022/04/19 00:42:58;;;;;;;14.25;8.48;;;7.50;79.30;;;;;;5072397;28;20439;-45
2022/04/19 00:45:25;;;;;;;12.27;7.28;;;7.50;79.80;;;;;;5076341;28;20111;-45
2022/04/19 00:47:56;;;;;;;12.68;7.20;;;7.50;79.80;;;;;;5111452;28;20016;-45
2022/04/19 00:50:22;;;;;;;10.27;6.50;;;7.40;80.00;;;;;;5112975;28;20008;-49
2022/04/19 00:52:50;;;;;;;13.52;7.32;;;7.40;80.10;;;;;;5096470;28;20049;-45
2022/04/19 00:55:17;;;;;;;12.23;7.07;;;7.40;80.20;;;;;;5081545;28;20032;-51
2022/04/19 00:57:53;;;;;;;12.05;6.97;;;7.40;80.30;;;;;;5103163;28;20681;-45
2022/04/19 01:00:20;;;;;;;11.98;7.93;;;7.40;80.30;;;;;;5104577;28;20028;-46
2022/04/19 01:02:46;;;;;;;15.65;7.25;;;7.40;80.60;;;;;;5082658;28;20059;-45
2022/04/19 01:05:14;;;;;;;11.88;7.45;;;7.40;81.00;;;;;;5065096;28;20055;-45
2022/04/19 01:07:45;;;;;;;12.35;7.10;;;7.40;81.10;;;;;;5084025;28;20040;-45
2022/04/19 01:10:13;;;;;;;12.35;7.38;;;7.40;81.30;;;;;;5044706;28;20557;-47
2022/04/19 01:15:28;;;;;;;9.95;6.75;;;7.40;81.60;;;;;;5086289;28;20031;-45
2022/04/19 01:18:01;;;;;;;11.73;6.90;;;7.50;81.50;;;;;;5082900;28;20037;-47
2022/04/19 01:20:30;;;;;;;10.73;6.70;;;7.50;81.30;;;;;;5066868;28;20314;-47
2022/04/19 01:22:56;;;;;;;10.55;6.82;;;7.50;81.20;;;;;;5083175;28;20020;-46
2022/04/19 01:25:23;;;;;;;11.25;6.10;;;7.50;81.40;;;;;;5073479;28;20614;-45
2022/04/19 01:27:51;;;;;;;11.52;6.50;;;7.50;81.30;;;;;;5084035;28;20086;-45
2022/04/19 01:30:19;;;;;;;9.98;5.72;;;7.40;81.00;;;;;;5090755;28;20051;-46
2022/04/19 01:32:45;;;;;;;10.95;6.60;;;7.40;80.80;;;;;;5093032;28;20105;-46
2022/04/19 01:35:16;;;;;;;10.13;6.57;;;7.40;80.70;;;;;;5058429;28;20051;-46
2022/04/19 01:37:51;;;;;;;8.35;5.10;;;7.30;80.60;;;;;;5073245;28;20020;-46
2022/04/19 01:40:17;;;;;;;9.90;5.97;;;7.30;80.90;;;;;;5035864;28;20044;-45
2022/04/19 01:42:47;;;;;;;9.32;5.80;;;7.30;80.60;;;;;;5054116;28;20037;-46
2022/04/19 01:45:26;;;;;;;12.05;6.43;;;7.30;80.70;;;;;;5086628;28;20027;-46
2022/04/19 01:47:56;;;;;;;9.18;5.63;;;7.20;80.90;;;;;;5088517;28;20031;-45
2022/04/19 01:50:24;;;;;;;7.75;5.45;;;7.20;81.00;;;;;;5069626;28;20025;-48
2022/04/19 01:52:53;;;;;;;9.13;5.63;;;7.30;81.00;;;;;;5067754;28;20024;-45
2022/04/19 01:55:21;;;;;;;15.48;6.45;;;7.30;80.90;;;;;;5071634;28;20472;-47
2022/04/19 01:57:51;;;;;;;9.55;5.35;;;7.20;80.80;;;;;;5078077;28;20115;-46
2022/04/19 02:00:17;;;;;;;;;;;7.30;80.70;;;;;;5058599;28;20436;-47
2022/04/19 02:02:45;;;;;;;11.27;5.45;;;7.20;80.60;;;;;;5090593;28;19931;-45
2022/04/19 02:05:12;;;;;;;8.75;5.07;;;7.20;80.70;;;;;;5108170;28;20027;-48
2022/04/19 02:07:45;;;;;;;7.80;5.10;;;7.20;80.50;;;;;;5061899;28;20346;-45
2022/04/19 02:10:15;;;;;;;6.80;4.57;;;7.20;80.50;;;;;;5108142;28;20039;-49
2022/04/19 02:12:43;;;;;;;8.30;4.53;;;7.10;80.70;;;;;;5099136;28;20120;-48
2022/04/19 02:15:11;;;;;;;8.85;5.10;;;7.10;80.70;;;;;;5115590;28;20036;-45
2022/04/19 02:17:47;;;;;;;7.47;4.72;;;7.00;80.90;;;;;;5116294;28;20027;-48
2022/04/19 02:20:14;;;;;;;8.57;5.47;;;7.00;80.80;;;;;;5078338;28;20028;-47
2022/04/19 02:22:42;;;;;;;8.40;4.95;;;7.00;80.80;;;;;;5080872;28;20051;-47
2022/04/19 02:25:11;;;;;;;8.15;4.70;;;7.00;80.80;;;;;;5080281;28;20039;-46
2022/04/19 02:27:40;;;;;;;8.07;4.68;;;6.90;80.90;;;;;;5081757;28;20035;-46
2022/04/19 02:30:13;;;;;;;6.07;4.45;;;6.90;80.70;;;;;;5098562;28;20036;-50
2022/04/19 02:32:45;;;;;;;8.60;4.43;;;6.90;80.50;;;;;;5089383;28;20169;-46
2022/04/19 02:35:14;;;;;;;6.60;4.57;;;6.90;80.50;;;;;;5091134;28;20448;-48
2022/04/19 02:37:53;;;;;;;7.95;5.18;;;6.90;80.40;;;;;;5093480;28;20032;-46
2022/04/19 02:40:29;;;;;;;7.57;4.35;;;6.80;80.40;;;;;;5093756;28;20028;-48
2022/04/19 02:42:55;;;;;;;6.97;4.50;;;6.80;80.30;;;;;;5114383;28;20028;-50
2022/04/19 02:45:22;;;;;;;8.32;4.82;;;6.70;80.10;;;;;;5097696;28;20042;-46
2022/04/19 02:48:03;;;;;;;7.32;4.40;;;6.70;80.10;;;;;;5116673;28;20023;-47
2022/04/19 02:50:43;;;;;;;7.63;4.93;;;6.70;80.10;;;;;;5113166;28;20024;-48
2022/04/19 02:53:10;;;;;;;7.40;4.70;;;6.70;79.90;;;;;;5115758;28;20031;-48
2022/04/19 02:55:36;;;;;;;7.20;4.20;;;6.60;80.00;;;;;;5078801;28;20126;-47
2022/04/19 02:58:02;;;;;;;7.35;4.30;;;6.60;80.20;;;;;;5097797;28;20169;-47
2022/04/19 03:00:28;;;;;;;6.60;3.85;;;6.50;80.30;;;;;;5092464;28;20469;-46
2022/04/19 03:02:55;;;;;;;7.90;4.68;;;6.50;80.40;;;;;;5120283;27;20126;-47
2022/04/19 03:05:22;;;;;;;6.90;4.20;;;6.50;80.60;;;;;;5096630;28;20024;-48
2022/04/19 03:07:48;;;;;;;9.48;4.43;;;6.60;80.70;;;;;;5113939;28;20028;-50
2022/04/19 03:10:21;;;;;;;7.60;4.53;;;6.60;80.70;;;;;;5115364;28;20060;-46
2022/04/19 03:12:47;;;;;;;7.63;4.07;;;6.60;80.70;;;;;;5107307;28;20027;-46
2022/04/19 03:15:12;;;;;;;6.38;4.28;;;6.60;80.90;;;;;;5096540;28;20050;-45
2022/04/19 03:17:43;;;;;;;8.10;4.90;;;6.70;81.00;;;;;;5092763;28;20028;-47
2022/04/19 03:20:11;;;;;;;7.95;4.75;;;6.70;81.10;;;;;;5112226;28;20478;-49
2022/04/19 03:28:11;;;;;;;8.18;5.13;;;6.80;81.80;;;;;;5101446;28;19918;-45
2022/04/19 03:30:40;;;;;;;7.53;4.28;;;6.80;81.50;;;;;;5096651;28;20019;-44
2022/04/19 03:33:07;;;;;;;7.10;4.85;;;6.80;81.70;;;;;;5115168;27;20023;-47
2022/04/19 03:35:36;;;;;;;7.07;5.43;;;6.90;81.70;;;;;;5115219;28;20508;-45
2022/04/19 03:38:10;;;;;;;8.85;5.15;;;6.90;81.70;;;;;;5113012;28;20023;-47
2022/04/19 03:40:38;;;;;;;9.10;5.43;;;6.90;81.70;;;;;;5113765;27;20031;-45
2022/04/19 03:43:08;;;;;;;9.25;5.80;;;6.90;81.60;;;;;;5115379;28;20532;-47
2022/04/19 03:45:35;;;;;;;8.07;5.47;;;7.00;82.20;;;;;;5096030;28;20023;-45
2022/04/19 03:48:13;;;;;;;9.57;5.75;;;7.00;81.90;;;;;;5114992;28;20028;-45
2022/04/19 03:50:39;;;;;;;7.35;5.00;;;7.00;81.70;;;;;;5114706;28;20045;-46
2022/04/19 03:53:08;;;;;;;9.77;5.53;;;7.00;81.60;;;;;;5095047;28;20035;-44
2022/04/19 03:55:35;;;;;;;7.28;4.70;;;7.00;81.80;;;;;;5095725;28;20047;-44
2022/04/19 03:58:03;;;;;;;6.30;4.68;;;7.00;81.80;;;;;;5097736;28;20020;-44
2022/04/19 04:00:31;;;;;;;8.50;4.75;;;7.00;81.50;;;;;;5111129;27;20028;-44
2022/04/19 04:03:01;;;;;;;8.48;4.30;;;7.00;81.10;;;;;;5095455;28;20060;-45
2022/04/19 04:05:29;;;;;;;7.50;5.40;;;7.00;81.00;;;;;;5103152;28;20069;-45
2022/04/19 04:07:59;;;;;;;6.60;4.90;;;6.90;80.90;;;;;;5095688;28;20143;-45
2022/04/19 04:10:27;;;;;;;8.85;4.53;;;6.90;80.70;;;;;;5092756;28;20097;-44
2022/04/19 04:12:52;;;;;;;8.43;5.10;;;6.90;80.60;;;;;;5101322;28;20620;-46
2022/04/19 04:15:19;;;;;;;8.77;4.82;;;6.90;80.40;;;;;;5092506;28;20059;-47
2022/04/19 04:17:46;;;;;;;6.35;4.32;;;6.90;80.20;;;;;;5099481;28;20024;-43
2022/04/19 04:20:14;;;;;;;6.57;4.50;;;6.90;80.20;;;;;;5113613;28;20035;-45
2022/04/19 04:22:41;;;;;;;7.55;5.05;;;6.90;80.00;;;;;;5093028;28;20058;-45
2022/04/19 04:25:07;;;;;;;6.90;4.38;;;6.90;79.90;;;;;;5094977;28;20027;-46
2022/04/19 04:27:33;;;;;;;8.98;4.68;;;6.90;79.70;;;;;;5112694;28;20015;-45
2022/04/19 04:30:01;;;;;;;6.70;4.32;;;6.90;79.70;;;;;;5113117;28;20337;-45
2022/04/19 04:32:28;;;;;;;8.98;4.35;;;6.80;79.80;;;;;;5094788;28;20069;-44
2022/04/19 04:34:57;;;;;;;6.38;4.18;;;6.80;79.70;;;;;;5111717;28;20040;-47
2022/04/19 04:37:23;;;;;;;9.45;4.45;;;6.80;79.30;;;;;;5098475;28;20038;-49
2022/04/19 04:39:49;;;;;;;6.72;4.32;;;6.80;79.50;;;;;;5110947;28;20035;-47
2022/04/19 04:42:16;;;;;;;6.13;3.45;;;6.90;79.20;;;;;;5113194;28;20039;-45
2022/04/19 04:44:43;;;;;;;6.00;3.58;;;6.90;79.10;;;;;;5102149;28;20058;-45
2022/04/19 04:49:59;;;;;;;6.50;4.30;;;6.90;78.80;;;;;;5096687;28;20112;-44
2022/04/19 04:52:27;;;;;;;5.75;3.80;;;7.00;78.80;;;;;;5113009;28;20024;-46
2022/04/19 04:54:53;;;;;;;7.20;4.60;;;7.00;78.80;;;;;;5111986;28;20042;-45
2022/04/19 04:57:20;;;;;;;6.25;3.95;;;7.00;78.90;;;;;;5099442;28;20024;-47
2022/04/19 04:59:48;;;;;;;7.80;4.70;;;7.00;78.90;;;;;;5108584;28;20356;-44
2022/04/19 05:02:16;;;;;;;7.50;4.68;;;7.00;79.00;;;;;;5096574;28;20130;-46
2022/04/19 05:04:43;;;;;;;9.30;4.10;;;7.00;79.10;;;;;;5090309;28;20036;-45
2022/04/19 05:07:10;;;;;;;7.82;3.90;;;7.00;79.30;;;;;;5111428;28;20038;-46
2022/04/19 05:09:36;;;;;;;7.55;4.00;;;7.00;79.30;;;;;;5075306;28;20417;-44
2022/04/19 05:12:02;;;;;;;6.80;3.90;;;7.10;79.40;;;;;;5108903;28;20020;-49
2022/04/19 05:14:28;;;;;;;6.45;4.43;;;7.10;79.20;;;;;;5111609;28;20471;-44
2022/04/19 05:16:55;;;;;;;6.72;3.83;;;7.20;79.20;;;;;;5112669;28;20058;-46
2022/04/19 05:19:21;;;;;;;6.47;3.85;;;7.30;79.30;;;;;;5094406;28;20114;-45
2022/04/19 05:21:50;;;;;;;7.13;3.42;;;7.40;79.10;;;;;;5113800;28;20096;-45
2022/04/19 05:24:15;;;;;;;8.52;3.88;;;7.40;78.10;;;;;;5112349;28;20022;-45
2022/04/19 05:26:42;;;;;;;5.85;3.90;;;7.40;78.30;;;;;;5112928;28;20028;-46
2022/04/19 05:29:09;;;;;;;7.05;3.83;;;7.50;78.20;;;;;;5113038;28;20452;-45
2022/04/19 05:31:39;;;;;;;5.32;3.22;;;7.60;76.70;;;;;;5099804;28;20116;-48
2022/04/19 05:34:05;;;;;;;7.05;3.42;;;7.80;76.30;;;;;;5086648;28;20110;-46
2022/04/19 05:36:30;;;;;;;4.75;2.45;;;7.90;76.00;;;;;;5085481;28;20119;-44
2022/04/19 05:38:57;;;;;;;4.57;3.10;;;8.00;75.80;;;;;;5093700;28;20451;-46
2022/04/19 05:41:27;;;;;;;5.22;2.50;;;8.00;75.00;;;;;;5112599;28;20028;-45
2022/04/19 05:43:53;;;;;;;5.32;2.85;;;8.10;74.30;;;;;;5085019;28;20032;-46
2022/04/19 05:46:21;;;;;;;5.45;3.38;;;8.10;74.30;;;;;;5108957;28;20452;-45
2022/04/19 05:48:47;;;;;;;6.50;3.55;;;8.20;73.90;;;;;;5092802;28;20431;-48
2022/04/19 05:51:13;;;;;;;5.88;3.22;;;8.30;74.30;;;;;;5113492;28;20028;-47
2022/04/19 05:53:40;;;;;;;6.22;3.38;;;8.40;74.90;;;;;;5095201;28;20027;-45
2022/04/19 05:56:07;;;;;;;4.53;2.83;;;8.60;74.90;;;;;;5104913;28;20036;-47
2022/04/19 05:58:33;;;;;;;6.07;3.38;;;8.70;74.70;;;;;;5103795;28;20058;-45
2022/04/19 06:01:02;;;;;;;5.65;2.83;;;8.90;74.70;;;;;;5108801;28;20046;-45
2022/04/19 06:06:14;;;;;;;4.15;2.50;;;9.10;72.90;;;;;;5080181;28;20170;-47
2022/04/19 06:08:45;;;;;;;3.42;2.05;;;9.20;71.10;;;;;;5091927;28;20035;-49
2022/04/19 06:11:15;;;;;;;8.68;2.03;;;9.30;67.70;;;;;;5088279;28;20436;-46
2022/04/19 06:13:42;;;;;;;5.18;2.55;;;9.50;66.40;;;;;;5103906;28;20052;-45
2022/04/19 06:16:09;;;;;;;3.85;1.50;;;9.60;66.80;;;;;;5088016;28;20032;-45
2022/04/19 06:18:35;;;;;;;7.72;2.30;;;9.80;66.30;;;;;;5086364;28;20093;-47
2022/04/19 06:21:05;;;;;;;6.32;1.67;;;9.90;66.00;;;;;;5084815;28;20043;-46
2022/04/19 06:23:36;;;;;;;3.92;2.10;;;9.90;65.50;;;;;;5092760;28;20055;-45
2022/04/19 06:26:06;;;;;;;3.60;1.80;;;10.00;64.50;;;;;;5092310;28;20093;-47
2022/04/19 06:28:35;;;;;;;4.32;2.03;;;10.10;62.00;;;;;;5103535;28;20107;-46
2022/04/19 06:31:02;;;;;;;4.32;2.05;;;10.20;62.50;;;;;;5105136;28;20375;-47
2022/04/19 06:33:28;;;;;;;6.15;2.78;;;10.30;62.50;;;;;;5107096;28;20426;-49
2022/04/19 06:35:55;;;;;;;3.63;1.60;;;10.30;62.10;;;;;;5093437;28;20493;-47
2022/04/19 06:38:21;;;;;;;3.45;1.80;;;10.40;62.70;;;;;;5112790;28;20325;-48
2022/04/19 06:40:49;;;;;;;4.25;2.22;;;10.40;62.20;;;;;;5110979;28;20081;-46
2022/04/19 06:43:15;;;;;;;4.55;2.10;;;10.50;60.80;;;;;;5115203;28;20064;-49
2022/04/19 06:45:43;;;;;;;5.57;2.08;;;10.60;60.90;;;;;;5114695;28;20062;-49
2022/04/19 06:48:11;;;;;;;4.10;2.15;;;10.70;61.20;;;;;;5113340;28;20024;-48
2022/04/19 06:50:37;;;;;;;5.03;2.33;;;10.80;61.40;;;;;;5086411;28;20039;-48
2022/04/19 06:53:09;;;;;;;3.65;1.85;;;10.90;60.00;;;;;;5102188;27;20047;-49
2022/04/19 06:55:36;;;;;;;4.03;2.72;;;10.90;59.70;;;;;;5085872;27;20532;-48
2022/04/19 06:58:04;;;;;;;5.10;1.85;;;10.90;59.90;;;;;;5110853;27;20374;-50
2022/04/19 07:00:31;;;;;;;4.43;2.25;;;11.00;58.90;;;;;;5102182;28;20020;-48
2022/04/19 07:02:58;;;;;;;3.55;2.13;;;11.00;59.30;;;;;;5112237;27;20044;-48
2022/04/19 07:05:28;;;;;;;4.72;2.00;;;11.10;59.80;;;;;;5079196;28;20038;-46
2022/04/19 07:07:55;;;;;;;4.90;2.20;;;11.20;59.50;;;;;;5103355;28;20020;-49
2022/04/19 07:10:25;;;;;;;5.03;2.70;;;11.20;59.70;;;;;;5104145;28;20028;-46
2022/04/19 07:12:52;;;;;;;5.10;2.35;;;11.20;59.20;;;;;;5106137;28;20032;-49
2022/04/19 07:15:20;;;;;;;4.43;1.73;;;11.40;59.80;;;;;;5105215;28;20027;-51
2022/04/19 07:17:47;;;;;;;4.32;2.30;;;11.50;58.30;;;;;;5085792;28;20035;-50
2022/04/19 07:28:39;;;;;;;4.28;2.08;;;11.90;58.60;;;;;;5095870;28;20027;-47
2022/04/19 07:31:05;;;;;;;3.80;2.15;;;12.10;58.00;;;;;;5093929;28;20107;-46
2022/04/19 07:33:37;;;;;;;4.38;2.10;;;12.30;56.60;;;;;;5103880;28;20031;-50
2022/04/19 07:36:07;;;;;;;4.80;2.20;;;12.60;55.90;;;;;;5075620;28;20048;-47
2022/04/19 07:38:33;;;;;;;4.15;1.98;;;12.90;54.80;;;;;;5092152;28;20026;-49
2022/04/19 07:41:01;;;;;;;3.60;1.85;;;13.10;54.70;;;;;;5046441;28;20047;-47
2022/04/19 07:43:28;;;;;;;7.03;1.60;;;13.60;54.60;;;;;;5086043;28;20111;-48
2022/04/19 07:45:55;;;;;;;4.10;1.60;;;14.10;51.90;;;;;;5075135;28;20028;-46
2022/04/19 07:48:24;;;;;;;4.45;1.77;;;14.40;50.70;;;;;;5094001;28;20031;-48
2022/04/19 07:50:50;;;;;;;3.78;1.42;;;14.80;48.60;;;;;;5092292;28;20032;-46
2022/04/19 07:53:17;;;;;;;3.90;1.58;;;15.20;47.10;;;;;;5093173;28;20043;-47
2022/04/19 07:55:44;;;;;;;3.75;1.50;;;15.70;46.30;;;;;;5075971;28;20028;-48
2022/04/19 07:58:12;;;;;;;5.60;1.27;;;15.90;44.60;;;;;;5073938;28;20440;-48
2022/04/19 08:00:39;;;;;;;4.95;1.83;;;16.10;42.30;;;;;;5074956;28;20169;-51
2022/04/19 08:03:07;;;;;;;5.13;1.30;;;16.10;41.70;;;;;;5093542;28;20656;-47
2022/04/19 08:05:33;;;;;;;5.63;1.60;;;16.20;41.70;;;;;;5106611;28;20024;-51
2022/04/19 08:07:59;;;;;;;4.40;1.80;;;16.20;41.50;;;;;;5112607;28;20042;-48
2022/04/19 08:10:26;;;;;;;2.63;1.10;;;16.10;41.90;;;;;;5077876;27;20024;-50
2022/04/19 08:12:53;;;;;;;3.70;1.60;;;16.60;42.80;;;;;;5094495;28;20468;-48
2022/04/19 08:15:21;;;;;;;3.22;1.73;;;17.00;40.90;;;;;;5110851;27;20124;-46
2022/04/19 08:17:48;;;;;;;4.00;2.15;;;17.40;42.90;;;;;;5075802;28;20024;-49
2022/04/19 08:20:15;;;;;;;5.50;2.95;;;17.30;42.00;;;;;;5109151;27;20476;-48
2022/04/19 08:22:47;;;;;;;5.65;2.60;;;17.30;42.20;;;;;;5114144;28;20095;-49
2022/04/19 08:25:14;;;;;;;5.43;2.53;;;16.90;43.30;;;;;;5071700;28;20042;-48
2022/04/19 08:27:48;;;;;;;4.57;2.35;;;16.90;43.40;;;;;;5113745;28;20027;-46
2022/04/19 08:30:17;;;;;;;5.05;2.65;;;16.90;43.00;;;;;;5110917;27;20064;-49
2022/04/19 08:32:46;;;;;;;7.15;3.28;;;17.10;43.10;;;;;;5112557;27;20420;-46
2022/04/19 08:35:18;;;;;;;5.03;3.10;;;17.30;44.30;;;;;;5092342;28;20028;-49
2022/04/19 08:37:45;;;;;;;6.68;3.80;;;17.60;42.80;;;;;;5109767;27;20032;-46
2022/04/19 08:40:16;;;;;;;6.68;3.42;;;17.20;42.50;;;;;;5069332;27;20031;-48
2022/04/19 08:42:47;;;;;;;7.28;3.53;;;17.10;43.20;;;;;;5094294;28;20468;-48
2022/04/19 08:45:15;;;;;;;8.30;2.80;;;17.30;43.60;;;;;;5111306;28;20031;-49
2022/04/19 08:47:45;;;;;;;6.50;2.90;;;16.90;43.50;;;;;;5112758;27;20031;-49
2022/04/19 08:50:18;;;;;;;4.65;2.72;;;16.60;44.20;;;;;;5093139;28;20034;-46
2022/04/19 08:52:47;;;;;;;4.72;2.88;;;16.40;44.10;;;;;;5113285;28;20027;-48
2022/04/19 08:58:00;;;;;;;6.93;3.13;;;16.50;44.40;;;;;;5110688;28;20039;-49
2022/04/19 09:00:27;;;;;;;4.68;2.75;;;16.60;45.10;;;;;;5095492;28;20376;-47
2022/04/19 09:02:58;;;;;;;7.38;2.85;;;16.70;44.50;;;;;;5112741;27;20158;-46
2022/04/19 09:05:27;;;;;;;3.78;2.40;;;16.90;44.40;;;;;;5070749;28;20032;-50
2022/04/19 09:07:58;;;;;;;4.13;2.60;;;16.90;43.90;;;;;;5112251;28;20012;-49
2022/04/19 09:10:30;;;;;;;6.43;2.35;;;16.80;44.30;;;;;;5095406;28;20039;-50
2022/04/19 09:13:21;;;;;;;6.88;3.05;;;16.80;44.50;;;;;;5111671;28;20039;-50
2022/04/19 09:15:49;;;;;;;6.22;1.90;;;16.80;43.80;;;;;;5098698;28;20525;-49
2022/04/19 09:18:36;;;;;;;4.88;2.10;;;17.00;47.10;;;;;;5107939;28;20401;-51
2022/04/19 09:21:05;;;;;;;7.03;2.55;;;17.20;42.40;;;;;;5109151;28;20110;-47
2022/04/19 09:23:34;;;;;;;5.38;2.28;;;17.30;44.90;;;;;;5112472;28;20031;-51
2022/04/19 09:26:05;;;;;;;5.07;2.15;;;17.00;42.30;;;;;;5089832;28;20119;-48
2022/04/19 09:28:34;;;;;;;5.03;2.38;;;16.90;43.60;;;;;;5113141;28;20023;-46
2022/04/19 09:31:07;;;;;;;7.25;2.85;;;16.90;44.40;;;;;;5107660;28;20103;-50
2022/04/19 09:33:32;;;;;;;4.82;2.75;;;17.20;43.10;;;;;;5079081;28;20051;-48
2022/04/19 09:36:07;;;;;;;5.03;2.80;;;17.20;41.30;;;;;;5093479;28;20372;-49
2022/04/19 09:38:54;;;;;;;5.20;2.28;;;17.20;43.80;;;;;;5096233;28;20054;-51
2022/04/19 09:41:34;;;;;;;6.05;3.40;;;17.50;43.80;;;;;;5109440;28;20114;-46
2022/04/19 09:44:21;;;;;;;5.03;2.92;;;17.40;41.70;;;;;;5089233;28;20111;-47
2022/04/19 09:47:06;;;;;;;4.53;3.20;;;17.10;42.20;;;;;;5094094;28;20037;-52
2022/04/19 09:49:52;;;;;;;6.13;2.90;;;16.90;43.10;;;;;;5096391;28;20168;-46
2022/04/19 09:52:29;;;;;;;6.13;2.85;;;17.40;44.40;;;;;;5107442;28;20045;-50
2022/04/19 09:55:09;;;;;;;4.07;3.00;;;17.70;42.00;;;;;;5110188;28;20028;-46
2022/04/19 09:57:41;;;;;;;6.28;3.30;;;17.40;43.50;;;;;;5090843;28;20027;-47
2022/04/19 10:00:24;;;;;;;7.80;4.10;;;17.50;41.30;;;;;;5084394;28;20024;-49
2022/04/19 10:08:21;;;;;;;5.25;3.10;;;18.00;42.70;;;;;;5084013;28;20034;-51
2022/04/19 10:11:01;;;;;;;5.35;3.50;;;18.20;43.10;;;;;;5098256;28;20045;-46
2022/04/19 10:13:29;;;;;;;5.65;3.50;;;18.00;42.60;;;;;;5113051;28;20051;-49
2022/04/19 10:15:57;;;;;;;6.13;3.58;;;18.20;45.00;;;;;;5112103;28;20126;-45
2022/04/19 10:18:25;;;;;;;6.80;3.30;;;18.40;44.00;;;;;;5117103;28;20046;-47
2022/04/19 10:20:58;;;;;;;5.18;3.60;;;18.60;43.20;;;;;;5105987;28;20409;-48
2022/04/19 10:23:41;;;;;;;5.40;3.10;;;18.40;40.10;;;;;;5106761;28;20039;-49
2022/04/19 10:26:28;;;;;;;7.70;3.88;;;18.00;43.10;;;;;;5110668;28;20027;-46
2022/04/19 10:28:58;;;;;;;6.80;4.03;;;18.20;43.70;;;;;;5096726;28;20024;-46
2022/04/19 10:31:37;;;;;;;6.30;3.03;;;18.20;43.30;;;;;;5111347;28;20024;-47
2022/04/19 10:34:05;;;;;;;5.28;3.33;;;18.50;45.60;;;;;;5110926;28;20043;-48
2022/04/19 10:36:54;;;;;;;6.15;4.20;;;18.60;40.60;;;;;;5090961;28;20032;-50
2022/04/19 10:39:52;;;;;;;7.18;3.60;;;18.20;41.50;;;;;;5101837;28;20441;-46
2022/04/19 10:42:38;;;;;;;5.72;3.97;;;17.90;44.70;;;;;;5081343;28;20061;-48
2022/04/19 10:45:31;;;;;;;5.57;4.25;;;17.60;43.90;;;;;;5106999;28;20108;-46
2022/04/19 10:47:57;;;;;;;5.80;3.53;;;17.40;44.60;;;;;;5102185;28;20099;-49
2022/04/19 10:50:45;;;;;;;6.22;4.65;;;17.30;44.30;;;;;;5102145;28;20046;-47
2022/04/19 10:53:14;;;;;;;6.68;4.40;;;17.20;43.50;;;;;;5105871;28;20020;-48
2022/04/19 10:56:01;;;;;;;5.68;3.55;;;17.20;45.40;;;;;;5084663;28;20053;-46
2022/04/19 10:58:46;;;;;;;5.32;3.75;;;17.30;45.40;;;;;;5090174;28;20020;-47
2022/04/19 11:01:30;;;;;;;5.82;4.15;;;17.30;44.60;;;;;;5088212;28;20059;-47
2022/04/19 11:03:58;;;;;;;6.78;4.35;;;16.90;45.20;;;;;;5096288;27;20163;-48
2022/04/19 11:06:31;;;;;;;5.50;3.60;;;16.90;45.90;;;;;;5097087;28;20592;-48
2022/04/19 11:09:29;;;;;;;5.97;4.55;;;17.10;45.70;;;;;;5103679;28;20026;-50
2022/04/19 11:12:09;;;;;;;6.38;3.97;;;16.90;47.50;;;;;;5100895;28;20043;-49
2022/04/19 11:14:41;;;;;;;8.38;4.25;;;17.20;46.60;;;;;;5093173;28;20053;-47
2022/04/19 11:17:29;;;;;;;6.22;4.50;;;17.40;47.80;;;;;;5103622;28;20124;-46
2022/04/19 11:20:16;;;;;;;5.35;4.35;;;17.30;45.80;;;;;;5102122;28;20046;-51
2022/04/19 11:22:46;;;;;;;7.18;5.03;;;17.40;46.60;;;;;;5075345;28;20126;-50
2022/04/19 11:25:13;;;;;;;6.00;4.75;;;17.40;47.90;;;;;;5113737;28;20065;-50
2022/04/19 11:27:57;;;;;;;8.35;4.15;;;17.40;47.00;;;;;;5115294;28;20024;-50
2022/04/19 11:30:28;;;;;;;7.13;4.43;;;17.40;48.10;;;;;;5113895;28;20028;-46
2022/04/19 11:32:57;;;;;;;6.25;4.43;;;17.40;47.00;;;;;;5132918;27;20019;-49
2022/04/19 11:35:24;;;;;;;7.97;4.03;;;17.10;48.20;;;;;;5116821;27;20081;-49
2022/04/19 11:37:50;;;;;;;7.47;4.13;;;16.90;50.60;;;;;;5080384;28;20028;-51
2022/04/19 11:49:07;;;;;;;8.80;5.18;;;16.90;50.30;;;;;;5091822;28;20045;-47
2022/04/19 11:51:35;;;;;;;6.68;4.75;;;16.90;51.60;;;;;;5088637;28;20051;-48
2022/04/19 11:54:03;;;;;;;11.87;5.23;;;16.90;52.00;;;;;;5105822;28;20071;-46
2022/04/19 11:56:30;;;;;;;8.18;5.28;;;16.90;52.20;;;;;;5071190;28;20050;-48
2022/04/19 11:59:12;;;;;;;8.15;5.30;;;16.90;50.80;;;;;;5084956;28;20074;-48
2022/04/19 12:01:39;;;;;;;6.63;4.90;;;16.80;50.70;;;;;;5104054;28;20050;-49
2022/04/19 12:04:13;;;;;;;6.68;4.97;;;16.80;50.40;;;;;;5104811;28;20040;-49
2022/04/19 12:06:47;;;;;;;9.30;5.70;;;16.80;50.60;;;;;;5105044;28;20055;-49
2022/04/19 12:09:16;;;;;;;8.43;5.35;;;16.80;50.50;;;;;;5094374;28;20031;-50
2022/04/19 12:11:43;;;;;;;9.43;5.50;;;16.60;51.00;;;;;;5076935;28;20061;-48
2022/04/19 12:14:10;;;;;;;8.20;5.43;;;16.70;53.30;;;;;;5093353;28;20106;-46
2022/04/19 12:16:44;;;;;;;6.93;5.03;;;16.70;52.50;;;;;;5113580;28;20035;-46
2022/04/19 12:19:12;;;;;;;7.07;5.38;;;16.60;52.60;;;;;;5087632;28;20123;-49
2022/04/19 12:21:46;;;;;;;9.93;5.45;;;16.40;52.90;;;;;;5085695;28;20039;-49
2022/04/19 12:24:40;;;;;;;9.05;5.32;;;16.40;54.30;;;;;;5093488;28;20549;-52
2022/04/19 12:27:08;;;;;;;7.95;5.18;;;16.40;53.70;;;;;;5093764;28;20039;-48
2022/04/19 12:29:36;;;;;;;8.35;5.47;;;16.30;55.00;;;;;;5103129;28;20020;-49
2022/04/19 12:32:07;;;;;;;6.85;5.45;;;16.30;54.70;;;;;;5087155;28;20032;-52
2022/04/19 12:34:38;;;;;;;8.48;5.38;;;16.20;53.80;;;;;;5081299;28;20161;-49
2022/04/19 12:37:18;;;;;;;6.63;5.03;;;16.00;54.60;;;;;;5102966;28;20027;-45
2022/04/19 12:39:58;;;;;;;8.43;5.63;;;16.00;54.60;;;;;;5089715;28;20365;-50
2022/04/19 12:42:27;;;;;;;7.90;5.97;;;15.90;55.70;;;;;;5093549;28;20060;-48
2022/04/19 12:45:12;;;;;;;6.43;5.38;;;15.60;57.00;;;;;;5077096;28;20372;-53
2022/04/19 12:47:57;;;;;;;7.63;5.70;;;15.60;57.60;;;;;;5091667;28;20027;-48
2022/04/19 12:50:27;;;;;;;13.57;6.18;;;15.30;58.30;;;;;;5112828;28;20032;-46
2022/04/19 12:52:59;;;;;;;11.00;6.75;;;15.20;60.40;;;;;;5092204;28;20028;-49
2022/04/19 12:58:49;;;;;;;9.18;5.95;;;15.10;57.10;;;;;;5105145;28;20038;-49
2022/04/19 13:01:16;;;;;;;11.05;6.65;;;15.10;57.80;;;;;;5094143;28;20499;-47
2022/04/19 13:03:43;;;;;;;8.57;5.93;;;15.30;58.70;;;;;;5105575;28;20373;-48
2022/04/19 13:14:27;;;;;;;12.02;5.20;;;15.00;59.60;;;;;;5109780;28;20096;-49
2022/04/19 13:16:54;;;;;;;7.30;5.68;;;14.70;59.50;;;;;;5112804;28;20404;-49
2022/04/19 13:19:21;;;;;;;8.77;5.97;;;14.50;60.60;;;;;;5093948;28;20333;-47
2022/04/19 13:21:51;;;;;;;7.13;6.10;;;14.40;60.50;;;;;;5110187;28;20110;-48
2022/04/19 13:24:21;;;;;;;8.45;6.55;;;14.00;60.70;;;;;;5111702;28;20444;-48
2022/04/19 13:26:48;;;;;;;9.38;7.10;;;14.00;63.90;;;;;;5111327;28;20015;-50
2022/04/19 13:29:16;;;;;;;7.60;6.10;;;14.10;61.50;;;;;;5093236;28;20092;-50
2022/04/19 13:31:45;;;;;;;7.75;6.40;;;14.00;61.70;;;;;;5101585;28;20023;-48
2022/04/19 13:34:12;;;;;;;11.40;7.10;;;13.90;61.90;;;;;;5110115;28;20031;-49
2022/04/19 13:36:40;;;;;;;10.82;7.65;;;13.80;60.90;;;;;;5076734;28;20093;-50
2022/04/19 13:39:08;;;;;;;8.88;6.93;;;13.60;61.90;;;;;;5101525;28;20027;-47
2022/04/19 13:41:38;;;;;;;10.52;7.45;;;13.60;62.40;;;;;;5092833;28;20031;-49
2022/04/19 13:44:09;;;;;;;9.02;7.25;;;13.50;62.20;;;;;;5111662;28;20463;-51
2022/04/19 13:46:41;;;;;;;9.07;7.70;;;13.40;61.90;;;;;;5110379;28;20027;-52
2022/04/19 13:49:10;;;;;;;10.75;8.15;;;13.50;61.90;;;;;;5073655;28;20035;-46
2022/04/19 13:51:39;;;;;;;11.50;7.13;;;13.50;62.50;;;;;;5094307;28;20122;-46
2022/04/19 13:54:10;;;;;;;9.13;7.10;;;13.50;62.10;;;;;;5111625;28;20058;-47
2022/04/19 13:56:46;;;;;;;8.77;6.95;;;13.70;62.80;;;;;;5092767;28;20048;-52